Time;durP1;ratioP1;P1;durP2;ratioP2;P2;SDS_P1;SDS_P2;PMS_P1;PMS_P2;Temp;Humidity;BMP_temperature;BMP_pressure;BME280_temperature;BME280_humidity;BME280_pressure;Samples;Min_cycle;Max_cycle;Signal;HPM_P1;HPM_P2
2022/12/19 00:01:08;;;;;;;;;;;14.10;42.90;;;;;;5093498;28;19908;-89
2022/12/19 00:03:34;;;;;;;;;;;14.00;43.00;;;;;;5094357;28;20208;-89
2022/12/19 00:06:00;;;;;;;;;;;14.10;43.00;;;;;;5093057;28;19908;-89
2022/12/19 00:08:26;;;;;;;;;;;14.10;43.00;;;;;;5093990;28;19974;-89
2022/12/19 00:10:55;;;;;;;;;;;14.00;42.90;;;;;;5092667;28;19920;-89
2022/12/19 00:13:21;;;;;;;;;;;14.00;43.00;;;;;;5093842;28;19908;-89
2022/12/19 00:15:47;;;;;;;;;;;14.00;43.00;;;;;;5093479;28;19969;-89
2022/12/19 00:18:13;;;;;;;;;;;14.00;43.00;;;;;;5091872;28;19912;-89
2022/12/19 00:20:38;;;;;;;;;;;13.90;43.00;;;;;;5092953;28;19973;-89
2022/12/19 00:23:04;;;;;;;;;;;13.90;43.40;;;;;;5095061;28;19968;-89
2022/12/19 00:25:30;;;;;;;;;;;13.90;43.00;;;;;;5094216;28;20197;-89
2022/12/19 00:27:55;;;;;;;;;;;13.90;43.00;;;;;;5096061;28;19923;-89
2022/12/19 00:30:21;;;;;;;;;;;13.80;43.00;;;;;;5095227;28;19919;-89
2022/12/19 00:32:46;;;;;;;;;;;13.80;43.00;;;;;;5095186;28;19908;-89
2022/12/19 00:35:13;;;;;;;;;;;13.80;43.00;;;;;;5092878;28;19922;-89
2022/12/19 00:37:38;;;;;;;;;;;13.80;43.10;;;;;;5093098;28;19981;-89
2022/12/19 00:40:04;;;;;;;;;;;13.80;43.20;;;;;;5092866;28;20213;-89
2022/12/19 00:42:30;;;;;;;;;;;13.70;43.10;;;;;;5092303;28;20248;-90
2022/12/19 00:44:56;;;;;;;;;;;13.70;43.20;;;;;;5091522;28;19909;-89
2022/12/19 00:47:21;;;;;;;;;;;13.60;43.20;;;;;;5092926;28;19947;-89
2022/12/19 00:49:50;;;;;;;;;;;13.60;43.20;;;;;;5094109;28;19908;-90
2022/12/19 00:52:16;;;;;;;;;;;13.60;43.20;;;;;;5094652;28;20376;-89
2022/12/19 00:54:41;;;;;;;;;;;13.50;43.30;;;;;;5094630;28;19909;-90
2022/12/19 00:57:07;;;;;;;;;;;13.60;43.30;;;;;;5095521;28;19959;-90
2022/12/19 00:59:32;;;;;;;;;;;13.60;43.30;;;;;;5095767;28;19908;-90
2022/12/19 01:01:58;;;;;;;;;;;13.50;43.30;;;;;;5094620;28;20321;-89
2022/12/19 01:04:27;;;;;;;;;;;13.50;43.30;;;;;;5094736;28;19970;-89
2022/12/19 01:06:52;;;;;;;;;;;13.50;43.40;;;;;;5094049;28;20016;-89
2022/12/19 01:09:20;;;;;;;;;;;13.50;43.40;;;;;;5093291;28;20010;-90
2022/12/19 01:14:30;;;;;;;;;;;13.50;43.30;;;;;;5093923;28;19919;-89
2022/12/19 01:16:55;;;;;;;;;;;13.50;43.40;;;;;;5094329;28;20014;-89
2022/12/19 01:19:21;;;;;;;;;;;13.50;43.40;;;;;;5095056;28;19916;-89
2022/12/19 01:21:47;;;;;;;;;;;13.50;43.40;;;;;;5094930;28;19942;-89
2022/12/19 01:24:13;;;;;;;;;;;13.50;43.40;;;;;;5094665;28;20073;-90
2022/12/19 01:26:38;;;;;;;;;;;13.40;43.40;;;;;;5094913;28;19916;-91
2022/12/19 01:29:04;;;;;;;;;;;13.40;43.40;;;;;;5095675;28;19916;-90
2022/12/19 01:31:29;;;;;;;;;;;13.40;43.50;;;;;;5095611;28;20157;-89
2022/12/19 01:33:57;;;;;;;;;;;13.40;43.50;;;;;;5095981;28;19912;-92
2022/12/19 01:36:23;;;;;;;;;;;13.30;43.50;;;;;;5097936;28;20352;-89
2022/12/19 01:38:48;;;;;;;;;;;13.40;43.60;;;;;;5099231;28;20007;-89
2022/12/19 01:41:14;;;;;;;;;;;13.30;43.60;;;;;;5099681;28;19915;-89
2022/12/19 01:43:59;;;;;;;;;;;13.30;43.50;;;;;;5100242;28;20007;-89
2022/12/19 01:46:35;;;;;;;;;;;13.30;43.50;;;;;;5099250;28;19905;-89
2022/12/19 01:49:02;;;;;;;;;;;13.30;43.50;;;;;;5099795;28;19916;-91
2022/12/19 01:51:33;;;;;;;;;;;13.30;43.60;;;;;;5099507;28;20372;-89
2022/12/19 01:54:00;;;;;;;;;;;13.30;43.60;;;;;;5098864;28;19909;-89
2022/12/19 01:56:30;;;;;;;;;;;13.30;43.60;;;;;;5088904;28;20030;-89
2022/12/19 01:58:58;;;;;;;;;;;13.20;43.60;;;;;;5098515;28;19908;-89
2022/12/19 02:01:24;;;;;;;;;;;13.20;43.60;;;;;;5098004;28;19980;-89
2022/12/19 02:03:50;;;;;;;;;;;13.20;43.70;;;;;;5096044;28;19908;-89
2022/12/19 02:06:16;;;;;;;;;;;13.20;43.70;;;;;;5097327;28;19908;-90
2022/12/19 02:08:43;;;;;;;;;;;13.10;43.70;;;;;;5096659;28;19985;-89
2022/12/19 02:11:09;;;;;;;;;;;13.10;43.70;;;;;;5096913;28;20197;-89
2022/12/19 02:13:34;;;;;;;;;;;13.10;44.20;;;;;;5097717;28;20270;-89
2022/12/19 02:16:03;;;;;;;;;;;13.10;43.80;;;;;;5097917;28;19908;-89
2022/12/19 02:18:44;;;;;;;;;;;13.10;43.80;;;;;;5098537;28;19908;-89
2022/12/19 02:21:22;;;;;;;;;;;13.00;43.90;;;;;;5097735;28;19915;-91
2022/12/19 02:23:57;;;;;;;;;;;13.00;43.90;;;;;;5099481;28;19908;-89
2022/12/19 02:26:34;;;;;;;;;;;13.00;44.00;;;;;;5098681;28;19920;-89
2022/12/19 02:29:30;;;;;;;;;;;13.00;44.00;;;;;;5098872;28;20332;-89
2022/12/19 02:32:06;;;;;;;;;;;12.90;44.00;;;;;;5080409;28;19920;-89
2022/12/19 02:34:35;;;;;;;;;;;12.90;44.10;;;;;;5097476;28;19908;-89
2022/12/19 02:37:01;;;;;;;;;;;12.80;44.10;;;;;;5096292;28;19920;-89
2022/12/19 02:39:38;;;;;;;;;;;12.80;44.10;;;;;;5096803;28;19921;-90
2022/12/19 02:42:05;;;;;;;;;;;12.80;44.30;;;;;;5097576;28;19991;-89
2022/12/19 02:44:33;;;;;;;;;;;12.80;44.20;;;;;;5097705;28;19965;-90
2022/12/19 02:47:00;;;;;;;;;;;12.70;44.20;;;;;;5096550;28;20195;-89
2022/12/19 02:49:27;;;;;;;;;;;12.70;44.20;;;;;;5097419;28;19908;-89
2022/12/19 02:51:53;;;;;;;;;;;12.70;44.20;;;;;;5097030;28;19973;-89
2022/12/19 02:54:19;;;;;;;;;;;12.70;44.20;;;;;;5097906;28;19908;-89
2022/12/19 02:56:48;;;;;;;;;;;12.70;44.20;;;;;;5098344;28;20201;-89
2022/12/19 02:59:25;;;;;;;;;;;12.70;44.30;;;;;;5098411;28;19908;-89
2022/12/19 03:02:04;;;;;;;;;;;12.70;44.30;;;;;;5097103;28;19920;-89
2022/12/19 03:04:36;;;;;;;;;;;12.60;44.30;;;;;;5102657;28;19919;-90
2022/12/19 03:07:11;;;;;;;;;;;12.60;44.30;;;;;;5103315;28;19908;-89
2022/12/19 03:09:42;;;;;;;;;;;12.60;44.30;;;;;;5097997;28;19908;-89
2022/12/19 03:12:15;;;;;;;;;;;12.60;44.40;;;;;;5098250;28;19972;-90
2022/12/19 03:14:41;;;;;;;;;;;12.60;44.40;;;;;;5097218;28;19912;-89
2022/12/19 03:17:07;;;;;;;;;;;12.60;44.40;;;;;;5097964;28;19912;-89
2022/12/19 03:19:34;;;;;;;;;;;12.50;44.40;;;;;;5096927;28;19908;-88
2022/12/19 03:22:00;;;;;;;;;;;12.50;44.40;;;;;;5097144;28;19919;-89
2022/12/19 03:24:26;;;;;;;;;;;12.50;44.50;;;;;;5097364;28;19908;-91
2022/12/19 03:26:56;;;;;;;;;;;12.50;44.50;;;;;;5096256;28;19916;-90
2022/12/19 03:29:33;;;;;;;;;;;12.50;44.50;;;;;;5096793;28;20163;-90
2022/12/19 03:31:59;;;;;;;;;;;12.50;44.50;;;;;;5096214;28;20385;-89
2022/12/19 03:34:31;;;;;;;;;;;12.40;44.50;;;;;;5096493;28;19919;-89
2022/12/19 03:37:00;;;;;;;;;;;12.50;44.60;;;;;;5096453;28;19912;-89
2022/12/19 03:39:27;;;;;;;;;;;12.40;44.60;;;;;;5095618;28;19908;-89
2022/12/19 03:44:39;;;;;;;;;;;12.40;44.60;;;;;;5096176;28;19966;-90
2022/12/19 03:47:11;;;;;;;;;;;12.40;44.60;;;;;;5095848;28;19918;-90
2022/12/19 03:49:37;;;;;;;;;;;12.30;44.60;;;;;;5095690;28;20212;-91
2022/12/19 03:52:12;;;;;;;;;;;12.30;44.70;;;;;;5094855;28;20002;-90
2022/12/19 03:54:40;;;;;;;;;;;12.30;44.70;;;;;;5094773;28;20321;-90
2022/12/19 03:57:15;;;;;;;;;;;12.30;44.80;;;;;;5094827;28;19977;-90
2022/12/19 03:59:53;;;;;;;;;;;12.30;44.90;;;;;;5095032;28;19912;-90
2022/12/19 04:02:20;;;;;;;;;;;12.20;44.90;;;;;;5095016;28;19909;-90
2022/12/19 04:04:49;;;;;;;;;;;12.20;45.00;;;;;;5094443;28;19908;-90
2022/12/19 04:07:15;;;;;;;;;;;12.20;45.00;;;;;;5094403;28;19966;-90
2022/12/19 04:09:42;;;;;;;;;;;12.10;45.00;;;;;;5095635;28;19916;-89
2022/12/19 04:12:13;;;;;;;;;;;12.10;45.10;;;;;;5095168;28;19908;-89
2022/12/19 04:14:38;;;;;;;;;;;12.00;45.30;;;;;;5094927;28;19919;-90
2022/12/19 04:17:07;;;;;;;;;;;12.60;45.40;;;;;;5094815;28;19912;-90
2022/12/19 04:19:32;;;;;;;;;;;13.50;44.50;;;;;;5095187;28;19995;-90
2022/12/19 04:22:06;;;;;;;;;;;14.10;43.70;;;;;;5094720;28;20007;-89
2022/12/19 04:24:36;;;;;;;;;;;14.40;43.30;;;;;;5095339;28;20258;-90
2022/12/19 04:27:05;;;;;;;;;;;14.60;43.00;;;;;;5094569;28;20619;-91
2022/12/19 04:29:33;;;;;;;;;;;14.70;42.80;;;;;;5095346;28;19908;-89
2022/12/19 04:32:00;;;;;;;;;;;15.00;42.60;;;;;;5092737;28;20296;-89
2022/12/19 04:34:26;;;;;;;;;;;15.20;42.30;;;;;;5093292;28;19939;-90
2022/12/19 04:36:51;;;;;;;;;;;15.50;42.10;;;;;;5092786;28;19912;-90
2022/12/19 04:39:17;;;;;;;;;;;15.70;41.80;;;;;;5092847;28;20201;-91
2022/12/19 04:41:43;;;;;;;;;;;15.80;41.90;;;;;;5094517;28;19912;-90
2022/12/19 04:44:08;;;;;;;;;;;15.90;41.70;;;;;;5094160;28;19979;-90
2022/12/19 04:46:34;;;;;;;;;;;16.10;41.60;;;;;;5094034;28;19908;-90
2022/12/19 04:49:00;;;;;;;;;;;16.20;41.50;;;;;;5093532;28;19947;-92
2022/12/19 04:51:26;;;;;;;;;;;16.30;41.40;;;;;;5093409;28;19938;-90
2022/12/19 04:53:51;;;;;;;;;;;16.30;41.50;;;;;;5093935;28;19908;-90
2022/12/19 04:56:17;;;;;;;;;;;16.30;41.60;;;;;;5092769;28;19908;-90
2022/12/19 04:58:42;;;;;;;;;;;16.40;41.60;;;;;;5094223;28;19970;-90
2022/12/19 05:01:08;;;;;;;;;;;16.60;41.50;;;;;;5093068;28;19909;-90
2022/12/19 05:03:34;;;;;;;;;;;16.60;41.40;;;;;;5091534;28;19945;-90
2022/12/19 05:06:06;;;;;;;;;;;16.70;41.40;;;;;;5091407;28;20380;-91
2022/12/19 05:08:32;;;;;;;;;;;16.70;41.40;;;;;;5091826;28;20036;-91
2022/12/19 05:10:58;;;;;;;;;;;16.70;41.40;;;;;;5092213;28;19919;-91
2022/12/19 05:13:24;;;;;;;;;;;16.70;41.40;;;;;;5095739;28;20340;-89
2022/12/19 05:15:56;;;;;;;;;;;16.80;41.30;;;;;;5096970;28;20310;-91
2022/12/19 05:18:22;;;;;;;;;;;16.90;41.30;;;;;;5096350;28;19963;-90
2022/12/19 05:20:48;;;;;;;;;;;17.00;41.30;;;;;;5095291;28;19951;-90
2022/12/19 05:23:14;;;;;;;;;;;17.00;41.20;;;;;;5095462;28;19930;-90
2022/12/19 05:25:40;;;;;;;;;;;17.10;41.20;;;;;;5095963;28;20289;-90
2022/12/19 05:28:05;;;;;;;;;;;17.10;41.30;;;;;;5096713;28;19951;-90
2022/12/19 05:30:31;;;;;;;;;;;17.00;41.40;;;;;;5096068;28;19913;-90
2022/12/19 05:32:56;;;;;;;;;;;17.00;41.40;;;;;;5094454;28;19912;-90
2022/12/19 05:35:22;;;;;;;;;;;17.00;41.40;;;;;;5094387;28;19959;-90
2022/12/19 05:37:48;;;;;;;;;;;17.00;41.40;;;;;;5094133;28;20015;-90
2022/12/19 05:40:13;;;;;;;;;;;17.00;41.50;;;;;;5094593;28;20260;-91
2022/12/19 05:42:39;;;;;;;;;;;17.00;41.70;;;;;;5095358;28;19908;-91
2022/12/19 05:45:05;;;;;;;;;;;16.90;41.80;;;;;;5094966;28;19908;-90
2022/12/19 05:47:31;;;;;;;;;;;16.80;41.80;;;;;;5093969;28;20111;-91
2022/12/19 05:49:57;;;;;;;;;;;16.80;41.70;;;;;;5094306;28;19919;-91
2022/12/19 05:52:23;;;;;;;;;;;16.70;41.90;;;;;;5095213;28;19989;-90
2022/12/19 05:54:49;;;;;;;;;;;16.60;42.00;;;;;;5094380;28;19916;-90
2022/12/19 05:57:15;;;;;;;;;;;16.60;42.10;;;;;;5093947;28;20014;-90
2022/12/19 05:59:41;;;;;;;;;;;16.60;42.00;;;;;;5092675;28;19908;-90
2022/12/19 06:02:06;;;;;;;;;;;16.60;42.00;;;;;;5093714;28;19957;-90
2022/12/19 06:04:32;;;;;;;;;;;16.60;42.00;;;;;;5094191;28;19916;-91
2022/12/19 06:06:58;;;;;;;;;;;16.50;42.10;;;;;;5093408;28;19908;-90
2022/12/19 06:09:23;;;;;;;;;;;16.40;42.20;;;;;;5091774;28;20091;-90
2022/12/19 06:11:49;;;;;;;;;;;16.50;42.10;;;;;;5093634;28;19908;-92
2022/12/19 06:14:15;;;;;;;;;;;16.50;42.30;;;;;;5094096;28;19977;-91
2022/12/19 06:16:40;;;;;;;;;;;16.40;42.20;;;;;;5093026;28;20212;-90
2022/12/19 06:19:06;;;;;;;;;;;16.60;42.10;;;;;;5092100;28;20205;-91
2022/12/19 06:21:31;;;;;;;;;;;16.60;42.00;;;;;;5089555;28;20019;-90
2022/12/19 06:23:57;;;;;;;;;;;16.70;42.00;;;;;;5088356;28;19972;-90
2022/12/19 06:26:22;;;;;;;;;;;16.70;42.10;;;;;;5090400;28;19916;-91
2022/12/19 06:28:49;;;;;;;;;;;16.70;42.00;;;;;;5090372;28;19916;-91
2022/12/19 06:31:15;;;;;;;;;;;16.70;42.00;;;;;;5087745;28;19919;-91
2022/12/19 06:33:41;;;;;;;;;;;16.70;41.90;;;;;;5088518;28;19908;-90
2022/12/19 06:36:09;;;;;;;;;;;16.80;42.00;;;;;;5090117;28;19908;-90
2022/12/19 06:38:34;;;;;;;;;;;16.80;42.00;;;;;;5088578;28;19919;-90
2022/12/19 06:43:45;;;;;;;;;;;16.80;41.90;;;;;;5089135;28;19931;-90
2022/12/19 06:46:11;;;;;;;;;;;16.80;42.00;;;;;;5090609;28;20190;-91
2022/12/19 06:48:37;;;;;;;;;;;16.80;42.10;;;;;;5089545;28;20163;-91
2022/12/19 06:51:02;;;;;;;;;;;16.90;42.10;;;;;;5089873;28;20043;-91
2022/12/19 06:53:28;;;;;;;;;;;16.90;42.10;;;;;;5089012;28;20065;-91
2022/12/19 06:55:55;;;;;;;;;;;16.90;42.20;;;;;;5090014;28;20231;-91
2022/12/19 06:58:20;;;;;;;;;;;16.90;42.10;;;;;;5089990;28;19996;-90
2022/12/19 07:00:46;;;;;;;;;;;16.90;42.20;;;;;;5087934;28;19908;-91
2022/12/19 07:03:12;;;;;;;;;;;17.00;42.10;;;;;;5087518;28;19909;-91
2022/12/19 07:05:39;;;;;;;;;;;17.10;42.00;;;;;;5089023;28;19908;-91
2022/12/19 07:08:04;;;;;;;;;;;17.10;42.10;;;;;;5089257;28;19916;-91
2022/12/19 07:10:30;;;;;;;;;;;17.10;42.20;;;;;;5089671;28;19942;-91
2022/12/19 07:12:56;;;;;;;;;;;17.10;42.10;;;;;;5087877;28;19908;-90
2022/12/19 07:15:22;;;;;;;;;;;17.10;42.10;;;;;;5090756;28;19939;-90
2022/12/19 07:17:47;;;;;;;;;;;17.10;42.10;;;;;;5087649;28;20290;-91
2022/12/19 07:20:14;;;;;;;;;;;17.20;42.00;;;;;;5088079;28;19916;-91
2022/12/19 07:22:40;;;;;;;;;;;17.30;42.00;;;;;;5088067;28;20047;-91
2022/12/19 07:25:06;;;;;;;;;;;17.20;42.00;;;;;;5085868;28;19909;-90
2022/12/19 07:27:31;;;;;;;;;;;17.30;42.00;;;;;;5086954;28;20339;-91
2022/12/19 07:29:57;;;;;;;;;;;17.30;42.10;;;;;;5086469;28;19924;-90
2022/12/19 07:32:22;;;;;;;;;;;17.30;42.00;;;;;;5088855;28;19958;-90
2022/12/19 07:34:48;;;;;;;;;;;17.30;42.00;;;;;;5090124;28;19908;-90
2022/12/19 07:37:14;;;;;;;;;;;17.40;42.00;;;;;;5090641;28;19920;-90
2022/12/19 07:39:39;;;;;;;;;;;17.30;42.00;;;;;;5088065;28;20115;-90
2022/12/19 07:42:05;;;;;;;;;;;17.30;42.00;;;;;;5084998;28;19908;-91
2022/12/19 07:44:30;;;;;;;;;;;17.20;42.30;;;;;;5087749;28;20412;-90
2022/12/19 07:46:56;;;;;;;;;;;17.10;42.40;;;;;;5089643;28;19948;-91
2022/12/19 07:49:22;;;;;;;;;;;17.00;42.50;;;;;;5088490;28;20098;-91
2022/12/19 07:51:47;;;;;;;;;;;16.80;42.60;;;;;;5091993;28;19915;-91
2022/12/19 07:54:13;;;;;;;;;;;16.70;42.90;;;;;;5094846;28;19943;-91
2022/12/19 07:56:38;;;;;;;;;;;16.50;43.20;;;;;;5090570;28;19912;-91
2022/12/19 07:59:04;;;;;;;;;;;16.30;43.40;;;;;;5088256;28;19919;-90
2022/12/19 08:01:29;;;;;;;;;;;16.10;43.60;;;;;;5087725;28;19955;-91
2022/12/19 08:03:55;;;;;;;;;;;16.00;43.80;;;;;;5088213;28;19948;-91
2022/12/19 08:06:22;;;;;;;;;;;15.90;43.90;;;;;;5089132;28;19908;-92
2022/12/19 08:08:47;;;;;;;;;;;15.90;44.10;;;;;;5089660;28;19944;-91
2022/12/19 08:11:17;;;;;;;;;;;16.10;43.80;;;;;;5087742;28;19944;-90
2022/12/19 08:13:43;;;;;;;;;;;16.40;43.70;;;;;;5088394;28;19916;-91
2022/12/19 08:16:09;;;;;;;;;;;16.50;43.60;;;;;;5089846;28;19973;-90
2022/12/19 08:18:34;;;;;;;;;;;16.70;43.20;;;;;;5089583;28;19920;-90
2022/12/19 08:21:00;;;;;;;;;;;16.80;43.10;;;;;;5090768;28;19933;-90
2022/12/19 08:23:26;;;;;;;;;;;16.90;43.00;;;;;;5087834;28;19977;-90
2022/12/19 08:25:59;;;;;;;;;;;17.00;42.90;;;;;;5088678;28;19924;-90
2022/12/19 08:28:24;;;;;;;;;;;17.10;42.90;;;;;;5089607;28;19908;-90
2022/12/19 08:30:50;;;;;;;;;;;17.20;42.90;;;;;;5089879;28;19919;-90
2022/12/19 08:33:15;;;;;;;;;;;17.20;42.90;;;;;;5089165;28;20139;-90
2022/12/19 08:35:41;;;;;;;;;;;17.30;42.80;;;;;;5088557;28;20208;-90
2022/12/19 08:38:07;;;;;;;;;;;17.20;42.80;;;;;;5087721;28;19912;-90
2022/12/19 08:40:32;;;;;;;;;;;17.20;42.90;;;;;;5087227;28;19993;-89
2022/12/19 08:42:58;;;;;;;;;;;17.20;43.10;;;;;;5086473;28;19912;-90
2022/12/19 08:45:23;;;;;;;;;;;17.20;43.10;;;;;;5087157;28;20270;-90
2022/12/19 08:47:49;;;;;;;;;;;17.20;43.00;;;;;;5087591;28;19918;-91
2022/12/19 08:50:15;;;;;;;;;;;17.20;43.00;;;;;;5088023;28;20007;-90
2022/12/19 08:52:40;;;;;;;;;;;17.20;43.00;;;;;;5088763;28;20014;-90
2022/12/19 08:55:06;;;;;;;;;;;17.20;43.10;;;;;;5089991;28;19936;-90
2022/12/19 08:57:31;;;;;;;;;;;17.10;43.30;;;;;;5087831;28;20189;-90
2022/12/19 08:59:57;;;;;;;;;;;17.20;43.20;;;;;;5086886;28;20013;-90
2022/12/19 09:02:23;;;;;;;;;;;17.10;43.20;;;;;;5085417;28;19908;-90
2022/12/19 09:04:48;;;;;;;;;;;17.20;43.20;;;;;;5087854;28;20136;-90
2022/12/19 09:07:14;;;;;;;;;;;17.20;43.20;;;;;;5086692;28;19985;-90
2022/12/19 09:09:40;;;;;;;;;;;17.10;43.20;;;;;;5086990;28;19912;-90
2022/12/19 09:12:06;;;;;;;;;;;17.10;43.40;;;;;;5088488;28;20333;-90
2022/12/19 09:14:32;;;;;;;;;;;17.00;43.30;;;;;;5086842;28;19908;-89
2022/12/19 09:16:59;;;;;;;;;;;17.00;43.50;;;;;;5087477;28;19947;-92
2022/12/19 09:19:24;;;;;;;;;;;16.90;43.60;;;;;;5087930;28;19909;-90
2022/12/19 09:21:50;;;;;;;;;;;16.90;43.60;;;;;;5086777;28;19919;-91
2022/12/19 09:24:15;;;;;;;;;;;16.90;43.70;;;;;;5084431;28;19986;-92
2022/12/19 09:26:42;;;;;;;;;;;16.80;43.70;;;;;;5086594;28;19917;-89
2022/12/19 09:29:08;;;;;;;;;;;16.80;43.80;;;;;;5085572;28;20350;-90
2022/12/19 09:31:34;;;;;;;;;;;16.80;43.80;;;;;;5087695;28;20532;-90
2022/12/19 09:34:00;;;;;;;;;;;16.80;43.90;;;;;;5088803;28;20194;-91
2022/12/19 09:36:25;;;;;;;;;;;16.70;43.90;;;;;;5087985;28;20190;-90
2022/12/19 09:38:55;;;;;;;;;;;16.70;43.90;;;;;;5087605;28;20064;-91
2022/12/19 09:41:50;;;;;;;;;;;16.70;43.90;;;;;;5086010;28;20190;-90
2022/12/19 09:44:25;;;;;;;;;;;16.80;43.90;;;;;;5086417;28;20111;-90
2022/12/19 09:46:52;;;;;;;;;;;16.80;44.00;;;;;;5087755;28;19908;-90
2022/12/19 09:49:20;;;;;;;;;;;16.80;43.90;;;;;;5085031;28;19908;-90
2022/12/19 09:51:57;;;;;;;;;;;16.90;43.80;;;;;;5088514;28;19916;-89
2022/12/19 09:54:26;;;;;;;;;;;17.00;43.80;;;;;;5088123;28;19954;-90
2022/12/19 09:56:56;;;;;;;;;;;17.00;43.80;;;;;;5090172;28;19924;-89
2022/12/19 09:59:27;;;;;;;;;;;17.00;43.80;;;;;;5091941;28;20327;-94
2022/12/19 10:02:10;;;;;;;;;;;17.10;43.60;;;;;;5091282;28;19912;-90
2022/12/19 10:04:37;;;;;;;;;;;17.10;43.70;;;;;;5090863;28;19908;-90
2022/12/19 10:07:02;;;;;;;;;;;17.10;43.60;;;;;;5089769;28;20154;-90
2022/12/19 10:09:33;;;;;;;;;;;17.10;43.70;;;;;;5089733;28;19916;-90
2022/12/19 10:12:22;;;;;;;;;;;17.10;43.60;;;;;;5088867;28;19908;-89
2022/12/19 10:15:00;;;;;;;;;;;17.30;43.50;;;;;;5088577;28;19908;-90
2022/12/19 10:17:35;;;;;;;;;;;17.30;43.50;;;;;;5087306;28;20059;-89
2022/12/19 10:20:19;;;;;;;;;;;17.40;43.50;;;;;;5088706;28;19915;-90
2022/12/19 10:23:03;;;;;;;;;;;17.50;43.30;;;;;;5091286;28;19969;-90
2022/12/19 10:25:58;;;;;;;;;;;17.50;43.30;;;;;;5091469;28;19912;-89
2022/12/19 10:28:33;;;;;;;;;;;17.40;43.40;;;;;;5072007;28;20002;-90
2022/12/19 10:31:15;;;;;;;;;;;17.50;43.40;;;;;;5089285;28;19908;-90
2022/12/19 10:34:01;;;;;;;;;;;17.50;43.30;;;;;;5086931;28;20265;-90
2022/12/19 10:36:29;;;;;;;;;;;17.50;43.30;;;;;;5086383;28;19908;-89
2022/12/19 10:39:05;;;;;;;;;;;17.50;43.40;;;;;;5086609;28;19976;-90
2022/12/19 10:41:31;;;;;;;;;;;17.50;43.40;;;;;;5087011;28;19908;-90
2022/12/19 10:44:05;;;;;;;;;;;17.60;43.40;;;;;;5089473;28;19909;-90
2022/12/19 10:46:44;;;;;;;;;;;17.50;43.40;;;;;;5088042;28;19999;-90
2022/12/19 10:49:12;;;;;;;;;;;17.50;43.50;;;;;;5089122;28;20133;-91
2022/12/19 10:51:38;;;;;;;;;;;17.50;43.60;;;;;;5088333;28;19912;-91
2022/12/19 10:54:03;;;;;;;;;;;17.40;43.60;;;;;;5087095;28;19943;-90
2022/12/19 10:56:30;;;;;;;;;;;17.40;43.60;;;;;;5089018;28;19994;-90
2022/12/19 10:58:57;;;;;;;;;;;17.40;43.60;;;;;;5086022;28;19915;-90
2022/12/19 11:01:27;;;;;;;;;;;17.40;43.60;;;;;;5087318;28;20011;-90
2022/12/19 11:04:11;;;;;;;;;;;17.40;43.70;;;;;;5088110;28;20224;-90
2022/12/19 11:06:45;;;;;;;;;;;17.40;43.70;;;;;;5088675;28;19908;-91
2022/12/19 11:09:17;;;;;;;;;;;17.40;43.80;;;;;;5086818;28;19943;-90
2022/12/19 11:11:43;;;;;;;;;;;17.40;43.80;;;;;;5088614;28;20070;-90
2022/12/19 11:14:19;;;;;;;;;;;17.40;43.70;;;;;;5087515;28;19969;-90
2022/12/19 11:16:58;;;;;;;;;;;17.40;43.80;;;;;;5087631;28;20147;-90
2022/12/19 11:19:29;;;;;;;;;;;17.50;44.10;;;;;;5087911;28;20258;-90
2022/12/19 11:21:57;;;;;;;;;;;17.50;44.10;;;;;;5085883;28;20047;-90
2022/12/19 11:24:34;;;;;;;;;;;17.50;44.20;;;;;;5087831;28;19908;-91
2022/12/19 11:26:59;;;;;;;;;;;17.50;44.20;;;;;;5086374;28;19924;-90
2022/12/19 11:29:28;;;;;;;;;;;17.50;44.10;;;;;;5085055;28;19909;-90
2022/12/19 11:31:58;;;;;;;;;;;17.50;44.20;;;;;;5085797;28;19915;-91
2022/12/19 11:34:25;;;;;;;;;;;17.60;44.20;;;;;;5084756;28;19972;-90
2022/12/19 11:36:54;;;;;;;;;;;17.50;44.70;;;;;;5083727;28;20205;-90
2022/12/19 11:39:27;;;;;;;;;;;17.50;44.40;;;;;;5081584;28;19912;-90
2022/12/19 11:42:05;;;;;;;;;;;17.50;44.40;;;;;;5084447;28;19908;-90
2022/12/19 11:44:35;;;;;;;;;;;17.50;44.60;;;;;;5084307;28;19916;-91
2022/12/19 11:47:16;;;;;;;;;;;17.40;44.60;;;;;;5085940;28;20075;-90
2022/12/19 11:49:44;;;;;;;;;;;17.40;44.70;;;;;;5082337;28;19912;-90
2022/12/19 11:52:16;;;;;;;;;;;17.30;44.80;;;;;;5081028;28;19908;-90
2022/12/19 11:54:56;;;;;;;;;;;17.20;44.90;;;;;;5083311;28;19989;-90
2022/12/19 11:57:22;;;;;;;;;;;17.20;45.00;;;;;;5085032;28;19919;-90
2022/12/19 11:59:47;;;;;;;;;;;17.10;45.10;;;;;;5080210;28;19908;-89
2022/12/19 12:02:25;;;;;;;;;;;17.00;45.30;;;;;;5081336;28;19908;-90
2022/12/19 12:05:07;;;;;;;;;;;16.90;45.50;;;;;;5081516;28;19908;-90
2022/12/19 12:07:37;;;;;;;;;;;16.80;45.60;;;;;;5089685;28;19961;-90
2022/12/19 12:10:14;;;;;;;;;;;16.60;45.70;;;;;;5083335;28;19908;-89
2022/12/19 12:12:53;;;;;;;;;;;16.50;45.90;;;;;;5080701;28;20006;-90
2022/12/19 12:15:38;;;;;;;;;;;16.40;46.10;;;;;;5082524;28;19909;-90
2022/12/19 12:18:04;;;;;;;;;;;16.20;46.30;;;;;;5082208;28;20062;-90
2022/12/19 12:20:35;;;;;;;;;;;16.10;46.50;;;;;;5081792;28;20401;-90
2022/12/19 12:23:04;;;;;;;;;;;16.00;46.60;;;;;;5081017;28;20131;-89
2022/12/19 12:25:30;;;;;;;;;;;16.00;46.60;;;;;;5082181;28;20202;-90
2022/12/19 12:28:14;;;;;;;;;;;16.10;46.70;;;;;;5083564;28;19912;-90
2022/12/19 12:30:47;;;;;;;;;;;16.10;46.70;;;;;;5082772;28;19919;-90
2022/12/19 12:33:20;;;;;;;;;;;16.40;46.50;;;;;;5085694;28;19919;-90
2022/12/19 12:35:49;;;;;;;;;;;16.80;46.20;;;;;;5084883;28;19999;-90
2022/12/19 12:38:30;;;;;;;;;;;17.10;45.70;;;;;;5081875;28;19916;-90
2022/12/19 12:41:01;;;;;;;;;;;17.40;45.50;;;;;;5085729;28;19923;-90
2022/12/19 12:43:33;;;;;;;;;;;17.60;45.20;;;;;;5084451;28;19951;-90
2022/12/19 12:45:59;;;;;;;;;;;17.80;45.10;;;;;;5084111;28;19951;-90
2022/12/19 12:48:25;;;;;;;;;;;17.80;45.10;;;;;;5085023;28;19916;-90
2022/12/19 12:50:51;;;;;;;;;;;17.80;45.20;;;;;;5083308;28;19912;-90
2022/12/19 12:53:19;;;;;;;;;;;17.80;45.20;;;;;;5083754;28;19916;-90
2022/12/19 12:55:46;;;;;;;;;;;17.80;45.20;;;;;;5084448;28;20194;-90
2022/12/19 12:58:30;;;;;;;;;;;17.80;45.10;;;;;;5082670;28;20262;-91
2022/12/19 13:01:10;;;;;;;;;;;17.80;45.20;;;;;;5080376;28;19908;-89
2022/12/19 13:03:35;;;;;;;;;;;17.80;45.20;;;;;;5079015;28;19984;-90
2022/12/19 13:06:06;;;;;;;;;;;17.70;45.40;;;;;;5081730;28;20163;-90
2022/12/19 13:08:45;;;;;;;;;;;17.70;45.50;;;;;;5079702;28;20121;-90
2022/12/19 13:12:58;;;;;;;;;;;17.60;45.50;;;;;;5079570;28;20185;-90
2022/12/19 13:14:03;;;;;;;;;;;17.50;45.60;;;;;;5080049;28;20140;-91
2022/12/19 13:16:44;;;;;;;;;;;17.40;45.70;;;;;;5080491;28;20186;-90
2022/12/19 13:19:12;;;;;;;;;;;17.30;45.80;;;;;;5082440;28;19923;-90
2022/12/19 13:21:57;;;;;;;;;;;17.30;45.80;;;;;;5081436;28;19908;-90
2022/12/19 13:24:23;;;;;;;;;;;17.20;45.80;;;;;;5082790;28;20200;-90
2022/12/19 13:26:49;;;;;;;;;;;17.10;45.90;;;;;;5084473;28;19915;-90
2022/12/19 13:29:29;;;;;;;;;;;17.10;45.90;;;;;;5081893;28;19960;-90
2022/12/19 13:32:09;;;;;;;;;;;17.00;46.40;;;;;;5084080;28;19916;-90
2022/12/19 13:34:36;;;;;;;;;;;16.90;46.10;;;;;;5088134;28;20193;-90
2022/12/19 13:37:20;;;;;;;;;;;16.80;46.20;;;;;;5086368;28;20357;-90
2022/12/19 13:39:52;;;;;;;;;;;16.80;46.20;;;;;;5088131;28;19908;-90
2022/12/19 13:45:15;;;;;;;;;;;16.70;46.30;;;;;;5088320;28;19951;-89
2022/12/19 13:47:42;;;;;;;;;;;16.70;46.30;;;;;;5088703;28;19908;-90
2022/12/19 13:50:17;;;;;;;;;;;16.70;46.30;;;;;;5087293;28;20211;-90
2022/12/19 13:52:47;;;;;;;;;;;16.70;46.30;;;;;;5087097;28;19919;-89
2022/12/19 13:55:14;;;;;;;;;;;16.70;46.40;;;;;;5085954;28;20200;-90
2022/12/19 13:57:39;;;;;;;;;;;16.70;46.40;;;;;;5084800;28;20131;-90
2022/12/19 14:00:09;;;;;;;;;;;16.70;46.30;;;;;;5086480;28;20034;-90
2022/12/19 14:02:40;;;;;;;;;;;16.80;46.20;;;;;;5088341;28;19973;-89
2022/12/19 14:05:19;;;;;;;;;;;16.90;46.20;;;;;;5087072;28;19908;-90
2022/12/19 14:07:45;;;;;;;;;;;16.90;46.10;;;;;;5087948;28;20182;-90
2022/12/19 14:10:16;;;;;;;;;;;17.00;46.00;;;;;;5086604;28;19908;-90
2022/12/19 14:15:29;;;;;;;;;;;17.00;46.00;;;;;;5087504;28;19923;-90
2022/12/19 14:17:55;;;;;;;;;;;17.10;45.90;;;;;;5085866;28;20167;-90
2022/12/19 14:20:22;;;;;;;;;;;17.10;45.90;;;;;;5084016;28;19915;-90
2022/12/19 14:22:47;;;;;;;;;;;17.10;45.90;;;;;;5085658;28;19905;-90
2022/12/19 14:25:13;;;;;;;;;;;17.10;45.90;;;;;;5086111;28;19919;-90
2022/12/19 14:27:59;;;;;;;;;;;17.10;45.90;;;;;;5085786;28;20003;-90
2022/12/19 14:30:29;;;;;;;;;;;17.10;46.00;;;;;;5086677;28;19947;-90
2022/12/19 14:32:56;;;;;;;;;;;17.10;45.90;;;;;;5088392;28;19973;-90
2022/12/19 14:35:23;;;;;;;;;;;17.00;46.00;;;;;;5087692;28;19915;-90
2022/12/19 14:37:57;;;;;;;;;;;17.10;45.90;;;;;;5088135;28;20105;-89
2022/12/19 14:40:26;;;;;;;;;;;17.10;45.90;;;;;;5082861;28;19943;-90